createdAt,value
2022-11-27T00:02:22.219Z,3.60
2022-11-27T00:04:48.622Z,3.64
2022-11-27T00:07:15.005Z,3.65
2022-11-27T00:09:41.702Z,3.71
2022-11-27T00:12:08.375Z,3.65
2022-11-27T00:14:34.748Z,3.70
2022-11-27T00:17:01.129Z,3.61
2022-11-27T00:19:27.661Z,3.68
2022-11-27T00:21:54.112Z,3.61
2022-11-27T00:24:20.463Z,3.62
2022-11-27T00:26:46.845Z,3.61
2022-11-27T00:29:13.226Z,3.66
2022-11-27T00:31:39.636Z,3.55
2022-11-27T00:34:08.130Z,3.62
2022-11-27T00:36:35.885Z,3.62
2022-11-27T00:39:02.764Z,3.54
2022-11-27T00:41:30.333Z,3.55
2022-11-27T00:43:57.486Z,3.57
2022-11-27T00:46:29.863Z,3.63
2022-11-27T00:49:01.019Z,3.61
2022-11-27T00:51:28.355Z,3.66
2022-11-27T00:53:55.745Z,3.59
2022-11-27T00:56:25.599Z,3.67
2022-11-27T00:58:52.541Z,3.66
2022-11-27T01:01:25.056Z,3.59
2022-11-27T01:03:52.070Z,3.59
2022-11-27T01:06:19.936Z,3.56
2022-11-27T01:08:47.268Z,3.60
2022-11-27T01:11:19.467Z,3.59
2022-11-27T01:13:46.649Z,3.65
2022-11-27T01:16:17.114Z,3.57
2022-11-27T01:18:45.034Z,3.66
2022-11-27T01:21:12.830Z,3.61
2022-11-27T01:23:39.323Z,3.65
2022-11-27T01:26:08.524Z,3.69
2022-11-27T01:28:35.930Z,3.70
2022-11-27T01:31:12.913Z,3.68
2022-11-27T01:33:39.725Z,3.78
2022-11-27T01:36:07.679Z,3.75
2022-11-27T01:38:34.878Z,3.71
2022-11-27T01:41:07.357Z,3.68
2022-11-27T01:43:55.201Z,3.63
2022-11-27T01:46:30.903Z,3.62
2022-11-27T01:49:20.944Z,3.56
2022-11-27T01:51:58.839Z,3.50
2022-11-27T01:54:29.299Z,3.55
2022-11-27T01:56:59.358Z,3.54
2022-11-27T01:59:25.920Z,3.51
2022-11-27T02:01:52.477Z,3.57
2022-11-27T02:04:19.492Z,3.64
2022-11-27T02:06:46.551Z,3.64
2022-11-27T02:09:13.018Z,3.58
2022-11-27T02:11:51.649Z,3.68
2022-11-27T02:14:46.051Z,3.66
2022-11-27T02:17:21.235Z,3.72
2022-11-27T02:20:01.782Z,3.70
2022-11-27T02:23:05.634Z,3.82
2022-11-27T02:26:08.633Z,3.92
2022-11-27T02:29:01.360Z,3.81
2022-11-27T02:31:59.076Z,3.75
2022-11-27T02:34:33.547Z,3.70
2022-11-27T02:37:13.089Z,3.65
2022-11-27T02:39:51.933Z,3.72
2022-11-27T02:42:20.507Z,3.72
2022-11-27T02:44:54.959Z,3.78
2022-11-27T02:47:22.087Z,3.79
2022-11-27T02:49:50.986Z,3.88
2022-11-27T02:52:19.883Z,3.86
2022-11-27T02:54:50.091Z,3.91
2022-11-27T02:57:18.765Z,3.96
2022-11-27T02:59:45.722Z,4.03
2022-11-27T03:02:18.955Z,3.95
2022-11-27T03:04:51.048Z,4.00
2022-11-27T03:07:31.483Z,3.95
2022-11-27T03:10:04.271Z,3.99
2022-11-27T03:12:30.738Z,3.88
2022-11-27T03:14:57.109Z,3.95
2022-11-27T03:17:51.760Z,3.99
2022-11-27T03:20:32.774Z,3.98
2022-11-27T03:22:59.210Z,3.99
2022-11-27T03:25:25.555Z,3.89
2022-11-27T03:27:58.006Z,3.98
2022-11-27T03:30:24.371Z,3.99
2022-11-27T03:32:50.826Z,3.96
2022-11-27T03:35:20.050Z,3.94
2022-11-27T03:37:46.610Z,3.89
2022-11-27T03:40:13.835Z,3.96
2022-11-27T03:43:09.753Z,3.93
2022-11-27T03:46:17.318Z,3.92
2022-11-27T03:48:51.826Z,3.92
2022-11-27T03:51:41.251Z,3.86
2022-11-27T03:54:41.216Z,3.89
2022-11-27T03:57:20.215Z,3.86
2022-11-27T03:59:52.596Z,3.82
2022-11-27T04:02:29.280Z,3.89
2022-11-27T04:04:55.624Z,3.83
2022-11-27T04:07:22.221Z,3.89
2022-11-27T04:09:48.624Z,3.89
2022-11-27T04:12:14.966Z,3.83
2022-11-27T04:14:41.750Z,3.87
2022-11-27T04:17:09.035Z,3.88
2022-11-27T04:19:35.448Z,3.94
2022-11-27T04:22:01.866Z,3.89
2022-11-27T04:24:28.253Z,3.95
2022-11-27T04:26:54.587Z,3.92
2022-11-27T04:29:21.023Z,3.87
2022-11-27T04:31:47.378Z,3.85
2022-11-27T04:34:13.756Z,3.87
2022-11-27T04:36:40.090Z,3.84
2022-11-27T04:39:06.494Z,3.86
2022-11-27T04:41:32.866Z,3.79
2022-11-27T04:43:59.234Z,3.96
2022-11-27T04:46:25.630Z,3.88
2022-11-27T04:48:52.028Z,3.82
2022-11-27T04:51:18.370Z,3.82
2022-11-27T04:53:44.718Z,3.73
2022-11-27T04:56:11.145Z,3.71
2022-11-27T04:58:37.506Z,3.78
2022-11-27T05:01:03.951Z,3.79
2022-11-27T05:03:30.420Z,3.86
2022-11-27T05:05:57.669Z,3.74
2022-11-27T05:08:25.250Z,3.79
2022-11-27T05:11:11.982Z,3.72
2022-11-27T05:13:39.164Z,3.72
2022-11-27T05:16:06.024Z,3.58
2022-11-27T05:18:33.199Z,3.59
2022-11-27T05:21:09.311Z,3.51
2022-11-27T05:23:35.698Z,3.47
2022-11-27T05:26:03.362Z,3.49
2022-11-27T05:28:29.795Z,3.53
2022-11-27T05:30:56.219Z,3.57
2022-11-27T05:33:22.746Z,3.42
2022-11-27T05:35:49.087Z,3.37
2022-11-27T05:38:15.517Z,3.47
2022-11-27T05:40:41.867Z,3.46
2022-11-27T05:43:08.257Z,3.42
2022-11-27T05:45:34.621Z,3.34
2022-11-27T05:48:00.990Z,3.28
2022-11-27T05:50:27.335Z,3.34
2022-11-27T05:52:53.703Z,3.38
2022-11-27T05:55:20.097Z,3.40
2022-11-27T05:57:46.433Z,3.45
2022-11-27T06:00:14.121Z,3.32
2022-11-27T06:02:40.612Z,3.38
2022-11-27T06:05:07.785Z,3.38
2022-11-27T06:07:34.193Z,3.39
2022-11-27T06:10:00.698Z,3.41
2022-11-27T06:12:27.142Z,3.50
2022-11-27T06:14:53.498Z,3.41
2022-11-27T06:17:19.882Z,3.36
2022-11-27T06:19:46.320Z,3.37
2022-11-27T06:22:12.719Z,3.38
2022-11-27T06:24:39.563Z,3.33
2022-11-27T06:27:06.102Z,3.24
2022-11-27T06:29:32.462Z,3.26
2022-11-27T06:31:58.886Z,3.27
2022-11-27T06:34:25.289Z,3.33
2022-11-27T06:36:51.634Z,3.35
2022-11-27T06:39:18.032Z,3.19
2022-11-27T06:41:44.417Z,3.22
2022-11-27T06:44:10.814Z,3.21
2022-11-27T06:46:37.236Z,3.23
2022-11-27T06:49:03.842Z,3.27
2022-11-27T06:51:32.059Z,3.20
2022-11-27T06:54:01.695Z,3.13
2022-11-27T06:56:30.349Z,3.09
2022-11-27T06:58:59.065Z,3.20
2022-11-27T07:01:28.183Z,3.19
2022-11-27T07:03:56.110Z,3.09
2022-11-27T07:06:24.472Z,3.02
2022-11-27T07:08:51.450Z,3.09
2022-11-27T07:11:20.812Z,3.05
2022-11-27T07:13:48.524Z,3.09
2022-11-27T07:16:15.967Z,2.99
2022-11-27T07:18:45.059Z,3.01
2022-11-27T07:21:11.874Z,2.96
2022-11-27T07:23:38.555Z,2.95
2022-11-27T07:26:09.612Z,2.92
2022-11-27T07:28:36.346Z,2.97
2022-11-27T07:31:03.312Z,2.92
2022-11-27T07:33:29.746Z,2.82
2022-11-27T07:36:08.230Z,2.84
2022-11-27T07:38:34.849Z,2.76
2022-11-27T07:41:03.171Z,2.80
2022-11-27T07:43:30.420Z,2.67
2022-11-27T07:45:57.396Z,2.70
2022-11-27T07:48:23.965Z,2.76
2022-11-27T07:50:50.518Z,2.83
2022-11-27T07:53:17.189Z,2.87
2022-11-27T07:55:43.600Z,2.92
2022-11-27T07:58:09.959Z,2.96
2022-11-27T08:00:36.656Z,2.95
2022-11-27T08:03:03.469Z,2.97
2022-11-27T08:05:30.321Z,3.14
2022-11-27T08:08:00.135Z,3.03
2022-11-27T08:10:26.864Z,3.06
2022-11-27T08:12:53.215Z,3.09
2022-11-27T08:15:19.575Z,3.03
2022-11-27T08:17:45.915Z,2.97
2022-11-27T08:20:12.440Z,3.05
2022-11-27T08:22:38.816Z,3.02
2022-11-27T08:25:05.663Z,2.99
2022-11-27T08:27:33.388Z,3.07
2022-11-27T08:30:00.400Z,3.05
2022-11-27T08:32:26.771Z,2.97
2022-11-27T08:34:53.165Z,3.07
2022-11-27T08:37:19.565Z,3.08
2022-11-27T08:39:45.930Z,3.10
2022-11-27T08:42:12.283Z,3.11
2022-11-27T08:44:38.816Z,3.17
2022-11-27T08:47:05.630Z,3.18
2022-11-27T08:49:31.996Z,3.15
2022-11-27T08:51:58.399Z,3.21
2022-11-27T08:54:24.829Z,3.17
2022-11-27T08:56:52.586Z,3.19
2022-11-27T08:59:18.993Z,3.26
2022-11-27T09:01:45.408Z,3.16
2022-11-27T09:04:11.769Z,3.30
2022-11-27T09:06:41.007Z,3.18
2022-11-27T09:09:07.875Z,3.06
2022-11-27T09:11:35.751Z,3.19
2022-11-27T09:14:04.406Z,3.31
2022-11-27T09:16:31.109Z,3.22
2022-11-27T09:18:57.857Z,3.17
2022-11-27T09:21:30.348Z,3.19
2022-11-27T09:24:02.371Z,3.22
2022-11-27T09:26:29.426Z,3.38
2022-11-27T09:28:58.139Z,3.35
2022-11-27T09:31:24.703Z,3.29
2022-11-27T09:33:51.107Z,3.26
2022-11-27T09:36:20.547Z,3.27
2022-11-27T09:38:46.935Z,3.33
2022-11-27T09:41:39.250Z,3.36
2022-11-27T09:44:26.819Z,3.25
2022-11-27T09:46:54.426Z,3.17
2022-11-27T09:49:34.474Z,2.95
2022-11-27T09:52:17.597Z,3.18
2022-11-27T09:55:00.278Z,3.08
2022-11-27T09:57:31.503Z,3.07
2022-11-27T10:00:04.910Z,3.05
2022-11-27T10:02:33.608Z,3.07
2022-11-27T10:05:13.729Z,3.08
2022-11-27T10:08:08.733Z,3.02
2022-11-27T10:10:41.013Z,3.10
2022-11-27T10:13:23.476Z,3.04
2022-11-27T10:16:03.708Z,3.00
2022-11-27T10:18:39.709Z,3.00
2022-11-27T10:21:17.204Z,3.15
2022-11-27T10:23:58.328Z,3.16
2022-11-27T10:26:31.755Z,3.09
2022-11-27T10:29:14.783Z,3.07
2022-11-27T10:31:46.860Z,3.09
2022-11-27T10:34:26.707Z,3.14
2022-11-27T10:36:55.518Z,3.19
2022-11-27T10:39:43.757Z,3.18
2022-11-27T10:42:17.386Z,3.27
2022-11-27T10:45:05.215Z,3.25
2022-11-27T10:47:33.844Z,3.30
2022-11-27T10:50:00.866Z,3.31
2022-11-27T10:52:27.294Z,3.35
2022-11-27T10:54:58.738Z,3.33
2022-11-27T10:57:54.988Z,3.47
2022-11-27T11:00:24.218Z,3.53
2022-11-27T11:03:02.330Z,3.58
2022-11-27T11:06:04.129Z,3.74
2022-11-27T11:08:19.813Z,3.87
2022-11-27T11:10:53.857Z,4.00
2022-11-27T11:13:23.127Z,4.10
2022-11-27T11:16:07.472Z,4.20
2022-11-27T11:18:53.150Z,4.10
2022-11-27T11:21:32.901Z,4.12
2022-11-27T11:24:12.725Z,4.03
2022-11-27T11:26:44.163Z,3.92
2022-11-27T11:29:49.077Z,3.94
2022-11-27T11:32:23.637Z,3.85
2022-11-27T11:35:01.384Z,3.85
2022-11-27T11:37:33.884Z,4.05
2022-11-27T11:40:04.711Z,4.14
2022-11-27T11:42:33.774Z,4.00
2022-11-27T11:45:06.325Z,4.16
2022-11-27T11:47:33.111Z,4.04
2022-11-27T11:49:59.545Z,3.94
2022-11-27T11:52:59.120Z,3.97
2022-11-27T11:55:40.181Z,4.03
2022-11-27T11:58:10.272Z,3.82
2022-11-27T12:01:04.859Z,3.81
2022-11-27T12:03:40.233Z,3.75
2022-11-27T12:06:26.271Z,3.71
2022-11-27T12:09:30.340Z,3.71
2022-11-27T12:12:13.736Z,3.71
2022-11-27T12:15:03.354Z,3.70
2022-11-27T12:17:57.681Z,3.67
2022-11-27T12:20:52.600Z,3.54
2022-11-27T12:23:49.396Z,3.54
2022-11-27T12:26:27.843Z,3.64
2022-11-27T12:28:59.009Z,3.72
2022-11-27T12:31:39.365Z,3.70
2022-11-27T12:34:24.452Z,3.71
2022-11-27T12:37:28.228Z,3.83
2022-11-27T12:40:12.920Z,3.80
2022-11-27T12:42:48.319Z,3.62
2022-11-27T12:45:24.029Z,3.71
2022-11-27T12:48:12.179Z,3.62
2022-11-27T12:50:45.487Z,3.79
2022-11-27T12:53:45.769Z,3.75
2022-11-27T12:56:21.009Z,3.87
2022-11-27T12:59:01.209Z,3.82
2022-11-27T13:01:33.336Z,3.95
2022-11-27T13:04:24.437Z,3.84
2022-11-27T13:07:10.426Z,3.92
2022-11-27T13:09:48.976Z,3.87
2022-11-27T13:12:25.537Z,3.91
2022-11-27T13:15:00.281Z,3.94
2022-11-27T13:17:34.129Z,3.82
2022-11-27T13:20:02.824Z,3.82
2022-11-27T13:22:34.581Z,3.87
2022-11-27T13:25:02.127Z,3.82
2022-11-27T13:27:30.589Z,3.91
2022-11-27T13:30:08.183Z,3.85
2022-11-27T13:32:40.217Z,3.76
2022-11-27T13:35:19.904Z,3.78
2022-11-27T13:37:49.163Z,3.85
2022-11-27T13:40:30.495Z,3.74
2022-11-27T13:43:03.635Z,3.71
2022-11-27T13:45:33.910Z,3.64
2022-11-27T13:48:02.478Z,3.66
2022-11-27T13:50:31.610Z,3.67
2022-11-27T13:53:07.279Z,3.57
2022-11-27T13:55:36.439Z,3.59
2022-11-27T13:58:05.088Z,3.59
2022-11-27T14:00:38.141Z,3.71
2022-11-27T14:03:06.591Z,3.54
2022-11-27T14:05:50.858Z,3.48
2022-11-27T14:08:20.669Z,3.48
2022-11-27T14:10:55.607Z,3.43
2022-11-27T14:13:31.987Z,3.47
2022-11-27T14:16:01.995Z,3.46
2022-11-27T14:18:30.217Z,3.56
2022-11-27T14:21:01.347Z,3.58
2022-11-27T14:23:48.733Z,3.41
2022-11-27T14:26:15.691Z,3.56
2022-11-27T14:28:45.133Z,3.43
2022-11-27T14:31:35.624Z,3.43
2022-11-27T14:34:20.814Z,3.44
2022-11-27T14:36:52.036Z,3.35
2022-11-27T14:39:28.389Z,3.47
2022-11-27T14:42:05.531Z,3.36
2022-11-27T14:44:32.491Z,3.29
2022-11-27T14:47:05.548Z,3.38
2022-11-27T14:49:33.378Z,3.35
2022-11-27T14:52:04.342Z,3.29
2022-11-27T14:54:34.395Z,3.34
2022-11-27T14:57:02.426Z,3.40
2022-11-27T14:59:28.866Z,3.31
2022-11-27T15:02:29.151Z,3.38
2022-11-27T15:05:03.408Z,3.39
2022-11-27T15:07:36.542Z,3.30
2022-11-27T15:10:21.788Z,3.33
2022-11-27T15:12:49.176Z,3.36
2022-11-27T15:15:23.184Z,3.43
2022-11-27T15:17:54.437Z,3.45
2022-11-27T15:20:35.411Z,3.38
2022-11-27T15:23:02.453Z,3.33
2022-11-27T15:25:41.116Z,3.43
2022-11-27T15:28:28.424Z,3.51
2022-11-27T15:30:56.619Z,3.50
2022-11-27T15:33:31.240Z,3.37
2022-11-27T15:36:16.920Z,3.42
2022-11-27T15:38:45.368Z,3.42
2022-11-27T15:41:26.910Z,3.47
2022-11-27T15:43:54.321Z,3.43
2022-11-27T15:46:26.800Z,3.43
2022-11-27T15:48:53.521Z,3.39
2022-11-27T15:51:19.959Z,3.39
2022-11-27T15:53:47.360Z,3.48
2022-11-27T15:56:13.797Z,3.39
2022-11-27T15:58:41.590Z,3.39
2022-11-27T16:01:09.174Z,3.42
2022-11-27T16:03:35.893Z,3.51
2022-11-27T16:06:07.416Z,3.42
2022-11-27T16:08:33.834Z,3.62
2022-11-27T16:11:02.645Z,3.63
2022-11-27T16:13:29.008Z,3.74
2022-11-27T16:15:55.649Z,3.70
2022-11-27T16:18:22.170Z,3.65
2022-11-27T16:20:48.531Z,3.71
2022-11-27T16:23:14.874Z,3.75
2022-11-27T16:25:41.278Z,3.76
2022-11-27T16:28:07.654Z,3.68
2022-11-27T16:30:34.078Z,3.82
2022-11-27T16:33:00.445Z,3.78
2022-11-27T16:35:26.814Z,3.80
2022-11-27T16:37:53.154Z,3.77
2022-11-27T16:40:19.526Z,3.85
2022-11-27T16:42:45.920Z,3.86
2022-11-27T16:45:12.785Z,3.85
2022-11-27T16:47:39.169Z,4.02
2022-11-27T16:50:06.310Z,4.01
2022-11-27T16:52:32.715Z,4.08
2022-11-27T16:54:59.062Z,4.08
2022-11-27T16:57:25.391Z,3.97
2022-11-27T16:59:51.720Z,3.94
2022-11-27T17:02:18.181Z,3.98
2022-11-27T17:04:45.000Z,3.92
2022-11-27T17:07:11.438Z,3.95
2022-11-27T17:09:38.571Z,3.92
2022-11-27T17:12:05.216Z,3.86
2022-11-27T17:14:31.870Z,3.88
2022-11-27T17:16:58.285Z,3.89
2022-11-27T17:19:26.187Z,3.88
2022-11-27T17:21:52.598Z,4.03
2022-11-27T17:24:19.146Z,4.02
2022-11-27T17:26:46.925Z,3.92
2022-11-27T17:29:16.193Z,3.99
2022-11-27T17:31:42.896Z,3.99
2022-11-27T17:34:14.110Z,3.97
2022-11-27T17:36:42.859Z,3.99
2022-11-27T17:39:11.228Z,3.98
2022-11-27T17:41:39.761Z,4.18
2022-11-27T17:44:06.904Z,4.09
2022-11-27T17:46:34.419Z,4.04
2022-11-27T17:49:03.110Z,3.94
2022-11-27T17:51:31.568Z,4.12
2022-11-27T17:54:00.726Z,4.11
2022-11-27T17:56:28.227Z,4.03
2022-11-27T17:58:54.925Z,4.08
2022-11-27T18:01:26.360Z,4.02
2022-11-27T18:03:59.691Z,4.06
2022-11-27T18:06:26.423Z,4.03
2022-11-27T18:08:54.675Z,4.02
2022-11-27T18:11:24.461Z,4.03
2022-11-27T18:13:51.067Z,4.04
2022-11-27T18:16:24.196Z,3.98
2022-11-27T18:18:51.651Z,3.93
2022-11-27T18:21:19.832Z,4.00
2022-11-27T18:24:21.410Z,3.97
2022-11-27T18:27:06.530Z,3.94
2022-11-27T18:29:23.129Z,3.97
2022-11-27T18:31:50.962Z,3.92
2022-11-27T18:34:17.447Z,4.01
2022-11-27T18:36:44.298Z,4.06
2022-11-27T18:39:10.640Z,4.04
2022-11-27T18:41:37.470Z,4.05
2022-11-27T18:44:04.429Z,4.03
2022-11-27T18:46:31.049Z,4.00
2022-11-27T18:48:57.574Z,3.94
2022-11-27T18:51:26.463Z,3.90
2022-11-27T18:53:54.325Z,3.93
2022-11-27T18:56:24.010Z,3.93
2022-11-27T18:58:50.757Z,3.90
2022-11-27T19:01:22.325Z,3.89
2022-11-27T19:03:48.861Z,3.86
2022-11-27T19:06:17.951Z,3.92
2022-11-27T19:08:45.147Z,3.97
2022-11-27T19:11:14.455Z,3.89
2022-11-27T19:13:42.190Z,3.90
2022-11-27T19:16:30.978Z,3.89
2022-11-27T19:18:59.078Z,3.90
2022-11-27T19:21:27.706Z,3.94
2022-11-27T19:23:54.356Z,3.99
2022-11-27T19:26:25.237Z,3.98
2022-11-27T19:28:53.924Z,3.99
2022-11-27T19:31:21.581Z,4.01
2022-11-27T19:33:56.266Z,4.12
2022-11-27T19:36:23.335Z,4.06
2022-11-27T19:38:55.036Z,4.02
2022-11-27T19:41:21.433Z,4.06
2022-11-27T19:43:47.928Z,3.98
2022-11-27T19:46:20.122Z,3.93
2022-11-27T19:48:47.332Z,3.90
2022-11-27T19:51:14.504Z,3.91
2022-11-27T19:53:41.480Z,3.89
2022-11-27T19:56:09.081Z,4.04
2022-11-27T19:58:36.594Z,3.95
2022-11-27T20:01:16.519Z,3.90
2022-11-27T20:03:44.236Z,4.02
2022-11-27T20:06:13.368Z,3.92
2022-11-27T20:08:41.157Z,3.88
2022-11-27T20:11:11.479Z,3.94
2022-11-27T20:13:38.221Z,3.84
2022-11-27T20:16:13.827Z,3.86
2022-11-27T20:18:40.836Z,3.75
2022-11-27T20:21:11.237Z,3.78
2022-11-27T20:23:39.237Z,3.73
2022-11-27T20:26:11.652Z,3.72
2022-11-27T20:28:41.063Z,3.75
2022-11-27T20:31:12.547Z,3.80
2022-11-27T20:33:39.010Z,3.81
2022-11-27T20:36:14.268Z,3.76
2022-11-27T20:38:41.225Z,3.76
2022-11-27T20:41:13.267Z,3.74
2022-11-27T20:43:40.210Z,3.80
2022-11-27T20:46:07.757Z,3.70
2022-11-27T20:48:34.608Z,3.71
2022-11-27T20:51:13.677Z,3.61
2022-11-27T20:53:40.881Z,3.62
2022-11-27T20:56:08.987Z,3.63
2022-11-27T20:58:37.108Z,3.70
2022-11-27T21:01:16.679Z,3.61
2022-11-27T21:03:44.086Z,3.69
2022-11-27T21:06:10.648Z,3.67
2022-11-27T21:08:37.113Z,3.68
2022-11-27T21:11:24.819Z,3.61
2022-11-27T21:13:52.345Z,3.66
2022-11-27T21:16:19.790Z,3.59
2022-11-27T21:18:46.205Z,3.59
2022-11-27T21:21:14.256Z,3.55
2022-11-27T21:23:41.727Z,3.49
2022-11-27T21:26:09.579Z,3.39
2022-11-27T21:28:35.948Z,3.47
2022-11-27T21:31:19.485Z,3.51
2022-11-27T21:33:53.956Z,3.49
2022-11-27T21:36:22.401Z,3.47
2022-11-27T21:38:49.423Z,3.64
2022-11-27T21:41:17.632Z,3.51
2022-11-27T21:43:45.540Z,3.55
2022-11-27T21:46:14.486Z,3.46
2022-11-27T21:48:41.076Z,3.44
2022-11-27T21:51:12.583Z,3.44
2022-11-27T21:53:42.836Z,3.44
2022-11-27T21:56:11.215Z,3.39
2022-11-27T21:58:37.879Z,3.52
2022-11-27T22:01:08.094Z,3.44
2022-11-27T22:03:38.613Z,3.52
2022-11-27T22:06:13.457Z,3.53
2022-11-27T22:08:41.365Z,3.53
2022-11-27T22:11:14.076Z,3.49
2022-11-27T22:13:41.503Z,3.44
2022-11-27T22:16:12.884Z,3.45
2022-11-27T22:18:39.443Z,3.42
2022-11-27T22:21:07.415Z,3.37
2022-11-27T22:23:33.965Z,3.41
2022-11-27T22:26:05.450Z,3.34
2022-11-27T22:28:31.927Z,3.38
2022-11-27T22:30:58.698Z,3.30
2022-11-27T22:33:25.163Z,3.28
2022-11-27T22:35:51.560Z,3.32
2022-11-27T22:38:17.965Z,3.25
2022-11-27T22:40:44.394Z,3.20
2022-11-27T22:43:10.814Z,3.23
2022-11-27T22:45:41.444Z,3.29
2022-11-27T22:48:07.947Z,3.31
2022-11-27T22:50:34.355Z,3.34
2022-11-27T22:53:00.739Z,3.25
2022-11-27T22:55:28.019Z,3.22
2022-11-27T22:57:54.380Z,3.06
2022-11-27T23:00:21.474Z,3.16
2022-11-27T23:02:48.034Z,3.09
2022-11-27T23:05:14.520Z,3.14
2022-11-27T23:07:40.947Z,3.13
2022-11-27T23:10:09.300Z,3.16
2022-11-27T23:12:35.676Z,3.17
2022-11-27T23:15:02.101Z,3.11
2022-11-27T23:17:28.974Z,3.02
2022-11-27T23:19:55.339Z,2.90
2022-11-27T23:22:21.692Z,3.13
2022-11-27T23:24:48.040Z,3.14
2022-11-27T23:27:14.428Z,3.17
2022-11-27T23:29:40.790Z,3.14
2022-11-27T23:32:07.283Z,3.09
2022-11-27T23:34:33.704Z,3.13
2022-11-27T23:37:00.049Z,3.06
2022-11-27T23:39:26.606Z,2.95
2022-11-27T23:41:53.099Z,2.97
2022-11-27T23:44:20.782Z,2.91
2022-11-27T23:46:48.014Z,2.96
2022-11-27T23:49:14.449Z,2.94
2022-11-27T23:51:40.907Z,2.96
2022-11-27T23:54:10.294Z,3.01
2022-11-27T23:56:38.175Z,2.93
2022-11-27T23:59:04.782Z,2.94
